Time;durP1;ratioP1;P1;durP2;ratioP2;P2;SDS_P1;SDS_P2;PMS_P1;PMS_P2;Temp;Humidity;BMP_temperature;BMP_pressure;BME280_temperature;BME280_humidity;BME280_pressure;Samples;Min_cycle;Max_cycle;Signal;HPM_P1;HPM_P2
2023/08/30 00:00:35;;;;;;;;;2.00;2.00;;;;;27.44;40.20;100881.56;5116335;27;45409;-71
2023/08/30 00:03:00;;;;;;;;;4.00;4.00;;;;;27.40;39.68;100877.72;5115883;27;45395;-71
2023/08/30 00:05:27;;;;;;;;;3.00;3.00;;;;;27.32;39.63;100846.75;5116299;27;45388;-71
2023/08/30 00:07:53;;;;;;;;;1.00;1.00;;;;;27.38;39.35;100856.53;5115971;27;46203;-71
2023/08/30 00:10:18;;;;;;;;;2.00;1.00;;;;;27.42;40.10;100859.59;5115961;27;45407;-71
2023/08/30 00:12:43;;;;;;;;;3.00;2.00;;;;;27.38;39.77;100847.69;5116390;27;45455;-71
2023/08/30 00:15:09;;;;;;;;;4.00;4.00;;;;;27.46;39.66;100865.31;5116314;27;45375;-71
2023/08/30 00:17:34;;;;;;;;;2.67;2.67;;;;;27.46;40.29;100868.81;5115524;27;45488;-71
2023/08/30 00:19:59;;;;;;;;;2.00;2.00;;;;;27.43;40.32;100850.53;5117421;27;45368;-71
2023/08/30 00:22:27;;;;;;;;;2.67;2.00;;;;;27.44;40.10;100854.84;5119668;27;45354;-71
2023/08/30 00:24:52;;;;;;;;;2.00;2.00;;;;;27.37;40.24;100841.56;5119596;27;45554;-71
2023/08/30 00:27:20;;;;;;;;;2.00;2.00;;;;;27.42;40.18;100845.44;5119420;27;46326;-71
2023/08/30 00:29:45;;;;;;;;;2.00;2.00;;;;;27.41;39.83;100841.94;5119261;27;45337;-71
2023/08/30 00:32:11;;;;;;;;;2.00;2.00;;;;;27.44;39.82;100846.03;5100697;27;45461;-71
2023/08/30 00:34:37;;;;;;;;;3.00;2.00;;;;;27.42;39.74;100840.91;5119524;27;45384;-71
2023/08/30 00:37:02;;;;;;;;;1.33;1.00;;;;;27.37;39.71;100822.03;5100726;27;46504;-71
2023/08/30 00:39:27;;;;;;;;;2.00;2.00;;;;;27.39;39.64;100830.66;5118331;27;45373;-71
2023/08/30 00:41:53;;;;;;;;;3.00;3.00;;;;;27.40;40.10;100825.06;5097100;27;45370;-71
2023/08/30 00:44:18;;;;;;;;;2.00;2.00;;;;;27.42;40.21;100824.06;5098815;27;45323;-71
2023/08/30 00:46:43;;;;;;;;;2.33;2.33;;;;;27.38;39.78;100816.47;5097280;27;49933;-71
2023/08/30 00:49:10;;;;;;;;;2.00;2.00;;;;;27.41;39.75;100820.56;5098372;27;45328;-72
2023/08/30 00:51:36;;;;;;;;;1.00;1.00;;;;;27.41;39.69;100812.53;5098589;27;45317;-71
2023/08/30 00:54:02;;;;;;;;;1.00;1.00;;;;;27.38;39.93;100810.31;5098379;27;45277;-71
2023/08/30 00:56:28;;;;;;;;;2.00;1.00;;;;;27.47;40.20;100818.88;5098222;27;45385;-71
2023/08/30 00:58:54;;;;;;;;;4.33;1.00;;;;;27.46;39.54;100817.22;5106865;27;45508;-74
2023/08/30 01:01:19;;;;;;;;;1.67;1.67;;;;;27.47;39.62;100814.34;5118865;27;45429;-72
2023/08/30 01:03:45;;;;;;;;;2.00;2.00;;;;;27.40;40.02;100802.91;5119124;27;45775;-71
2023/08/30 01:06:10;;;;;;;;;2.00;2.00;;;;;27.45;39.99;100802.25;5118763;27;46631;-72
2023/08/30 01:08:37;;;;;;;;;3.00;2.00;;;;;27.44;39.81;100798.75;5117997;27;45344;-71
2023/08/30 01:11:05;;;;;;;;;2.00;2.00;;;;;27.47;40.21;100798.31;5118945;27;45383;-71
2023/08/30 01:13:38;;;;;;;;;2.00;2.00;;;;;27.43;40.28;100789.09;5118342;27;45296;-71
2023/08/30 01:16:04;;;;;;;;;2.00;2.00;;;;;27.42;39.53;100782.13;5118601;27;46520;-71
2023/08/30 01:18:34;;;;;;;;;2.00;2.00;;;;;27.44;39.65;100785.41;5118371;27;45309;-72
2023/08/30 01:21:03;;;;;;;;;3.00;3.00;;;;;27.46;40.15;100782.50;5118885;27;45393;-71
2023/08/30 01:23:42;;;;;;;;;2.00;2.00;;;;;27.48;39.51;100786.59;5118598;27;45475;-71
2023/08/30 01:26:17;;;;;;;;;3.00;1.00;;;;;27.48;39.73;100773.22;5117041;27;45284;-71
2023/08/30 01:28:44;;;;;;;;;1.67;1.67;;;;;27.44;39.60;100763.19;5118028;27;45305;-71
2023/08/30 01:31:11;;;;;;;;;2.00;2.00;;;;;27.47;40.11;100770.78;5117697;27;45282;-72
2023/08/30 01:33:38;;;;;;;;;1.67;1.67;;;;;27.48;40.49;100770.56;5118417;27;45378;-71
2023/08/30 01:36:04;;;;;;;;;2.00;2.00;;;;;27.45;40.25;100762.19;5118283;27;47347;-71
2023/08/30 01:38:31;;;;;;;;;2.33;2.33;;;;;27.39;40.26;100748.66;5118267;27;45357;-71
2023/08/30 01:40:59;;;;;;;;;2.33;2.33;;;;;27.44;39.73;100756.00;5118521;27;45350;-71
2023/08/30 01:43:28;;;;;;;;;3.00;3.00;;;;;27.44;40.06;100756.00;5117995;27;45372;-71
2023/08/30 01:45:56;;;;;;;;;4.00;3.67;;;;;27.46;39.80;100756.59;5117634;27;46004;-71
2023/08/30 01:48:24;;;;;;;;;2.00;2.00;;;;;27.44;40.43;100753.34;5117425;27;45460;-71
2023/08/30 01:50:50;;;;;;;;;2.00;2.00;;;;;27.44;40.32;100750.66;5100038;27;45369;-71
2023/08/30 01:53:15;;;;;;;;;3.00;1.33;;;;;27.44;40.21;100747.16;5118033;27;45386;-71
2023/08/30 01:55:42;;;;;;;;;3.00;1.67;;;;;27.40;40.35;100741.47;5118064;27;46334;-71
2023/08/30 01:58:08;;;;;;;;;2.00;2.00;;;;;27.42;40.32;100746.56;5117584;27;45372;-71
2023/08/30 02:00:38;;;;;;;;;3.33;2.33;;;;;27.44;40.00;100739.97;5118018;27;45261;-71
2023/08/30 02:03:10;;;;;;;;;1.00;1.00;;;;;27.39;39.74;100737.97;5118215;27;45216;-71
2023/08/30 02:05:39;;;;;;;;;2.00;2.00;;;;;27.45;40.20;100744.28;5099349;27;47747;-71
2023/08/30 02:08:12;;;;;;;;;1.00;1.00;;;;;27.41;39.82;100737.75;5117590;27;45358;-72
2023/08/30 02:10:44;;;;;;;;;2.00;2.00;;;;;27.37;39.82;100736.56;5117863;27;45246;-71
2023/08/30 02:13:11;;;;;;;;;2.67;2.00;;;;;27.40;40.29;100734.25;5117461;27;45349;-70
2023/08/30 02:15:38;;;;;;;;;3.33;2.00;;;;;27.37;40.14;100734.72;5117813;27;45363;-71
2023/08/30 02:18:05;;;;;;;;;1.00;1.00;;;;;27.35;39.97;100731.41;5117552;27;45281;-71
2023/08/30 02:20:31;;;;;;;;;0.33;0.33;;;;;27.45;39.93;100740.81;5117930;27;45353;-71
2023/08/30 02:23:00;;;;;;;;;1.00;1.00;;;;;27.42;39.90;100735.91;5117695;27;45352;-71
2023/08/30 02:25:25;;;;;;;;;2.67;2.67;;;;;27.40;39.69;100728.91;5117431;27;46487;-71
2023/08/30 02:27:50;;;;;;;;;3.00;2.00;;;;;27.43;40.09;100733.00;5117010;27;45365;-71
2023/08/30 02:30:17;;;;;;;;;1.33;1.33;;;;;27.44;40.20;100733.81;5117673;27;45555;-71
2023/08/30 02:32:42;;;;;;;;;2.00;2.00;;;;;27.42;39.62;100726.03;5117803;27;45381;-72
2023/08/30 02:35:08;;;;;;;;;2.00;2.00;;;;;27.42;40.44;100725.22;5117298;27;45498;-71
2023/08/30 02:37:33;;;;;;;;;1.67;1.67;;;;;27.43;39.73;100724.97;5117232;27;45409;-71
2023/08/30 02:39:59;;;;;;;;;0.67;0.67;;;;;27.46;40.33;100721.88;5117596;27;45337;-71
2023/08/30 02:42:25;;;;;;;;;2.33;1.33;;;;;27.43;39.71;100722.31;5116491;27;45545;-72
2023/08/30 02:44:51;;;;;;;;;2.67;2.67;;;;;27.39;40.46;100716.59;5116483;27;45401;-71
2023/08/30 02:47:16;;;;;;;;;1.00;1.00;;;;;27.47;40.48;100733.38;5116871;27;45432;-71
2023/08/30 02:49:42;;;;;;;;;2.00;2.00;;;;;27.46;40.01;100727.22;5117414;27;45388;-71
2023/08/30 02:52:08;;;;;;;;;3.00;3.00;;;;;27.43;40.17;100714.28;5117306;27;45388;-72
2023/08/30 02:54:33;;;;;;;;;2.00;2.00;;;;;27.44;40.39;100712.44;5116996;27;45743;-71
2023/08/30 02:56:58;;;;;;;;;1.33;1.33;;;;;27.41;40.59;100703.00;5116594;27;45412;-71
2023/08/30 02:59:24;;;;;;;;;1.33;1.33;;;;;27.44;40.57;100707.09;5117097;27;45389;-71
2023/08/30 03:01:49;;;;;;;;;2.00;1.00;;;;;27.44;40.51;100707.09;5117134;27;45357;-71
2023/08/30 03:04:14;;;;;;;;;2.00;2.00;;;;;27.44;40.44;100704.44;5117108;27;45319;-71
2023/08/30 03:06:40;;;;;;;;;1.00;1.00;;;;;27.44;40.03;100702.56;5116975;27;45364;-71
2023/08/30 03:09:06;;;;;;;;;2.00;1.33;;;;;27.40;40.41;100691.50;5098446;27;45366;-71
2023/08/30 03:11:31;;;;;;;;;1.67;1.67;;;;;27.39;40.09;100687.22;5116826;27;45404;-71
2023/08/30 03:13:57;;;;;;;;;3.00;2.67;;;;;27.43;40.35;100695.59;5116788;27;45902;-71
2023/08/30 03:16:22;;;;;;;;;1.00;1.00;;;;;27.39;40.66;100697.06;5116549;27;45367;-72
2023/08/30 03:18:48;;;;;;;;;1.00;1.00;;;;;27.43;40.37;100706.28;5116985;27;45386;-71
2023/08/30 03:21:14;;;;;;;;;2.33;2.33;;;;;27.38;40.69;100696.25;5116943;27;45326;-71
2023/08/30 03:23:40;;;;;;;;;2.00;2.00;;;;;27.35;40.48;100688.69;5116888;27;45360;-71
2023/08/30 03:26:14;;;;;;;;;2.00;2.00;;;;;27.39;40.52;100692.56;5116497;27;45355;-71
2023/08/30 03:28:40;;;;;;;;;2.00;2.00;;;;;27.42;39.91;100687.81;5116747;27;45506;-71
2023/08/30 03:31:16;;;;;;;;;2.33;2.00;;;;;27.41;39.95;100684.31;5116691;27;45481;-71
2023/08/30 03:33:42;;;;;;;;;2.00;2.00;;;;;27.43;40.62;100686.78;5116636;27;46686;-71
2023/08/30 03:36:11;;;;;;;;;2.00;2.00;;;;;27.42;40.58;100682.47;5097668;27;45628;-72
2023/08/30 03:38:37;;;;;;;;;3.67;2.33;;;;;27.39;40.42;100689.88;5116340;27;45382;-71
2023/08/30 03:41:03;;;;;;;;;4.00;2.67;;;;;27.42;39.60;100693.16;5116420;27;45525;-71
2023/08/30 03:43:29;;;;;;;;;2.00;1.00;;;;;27.43;40.17;100702.81;5116292;27;46093;-71
2023/08/30 03:45:54;;;;;;;;;1.00;1.00;;;;;27.37;39.84;100688.47;5115641;27;45526;-71
2023/08/30 03:48:20;;;;;;;;;1.67;1.67;;;;;27.43;40.02;100692.91;5116476;27;45387;-71
2023/08/30 03:50:45;;;;;;;;;2.33;1.00;;;;;27.36;40.47;100689.50;5116318;27;45452;-71
2023/08/30 03:53:10;;;;;;;;;2.33;2.00;;;;;27.36;39.75;100692.16;5116042;27;46291;-72
2023/08/30 03:55:36;;;;;;;;;1.00;1.00;;;;;27.42;40.64;100693.97;5118296;27;45398;-71
2023/08/30 03:58:01;;;;;;;;;1.67;1.67;;;;;27.39;40.06;100683.72;5119782;27;45486;-71
2023/08/30 04:00:26;;;;;;;;;1.33;1.33;;;;;27.40;39.85;100688.03;5120059;27;45428;-72
2023/08/30 04:02:52;;;;;;;;;2.00;2.00;;;;;27.41;40.56;100684.31;5119672;27;45415;-71
2023/08/30 04:05:17;;;;;;;;;3.00;1.67;;;;;27.41;40.04;100673.63;5119802;27;45444;-71
2023/08/30 04:07:42;;;;;;;;;1.00;1.00;;;;;27.42;40.00;100677.13;5101104;27;45458;-71
2023/08/30 04:10:08;;;;;;;;;4.00;2.33;;;;;27.38;40.46;100674.88;5119663;27;45500;-72
2023/08/30 04:12:34;;;;;;;;;1.00;1.00;;;;;27.35;40.02;100669.97;5119873;27;45373;-71
2023/08/30 04:15:01;;;;;;;;;2.00;2.00;;;;;27.38;40.40;100679.41;5101019;27;45358;-71
2023/08/30 04:17:26;;;;;;;;;2.00;2.00;;;;;27.39;40.34;100675.72;5119714;27;45378;-71
2023/08/30 04:19:52;;;;;;;;;2.00;2.00;;;;;27.24;40.69;100652.84;5119690;27;45529;-71
2023/08/30 04:22:18;;;;;;;;;1.67;1.67;;;;;27.39;40.05;100681.88;5119205;27;45702;-71
2023/08/30 04:24:43;;;;;;;;;1.33;1.33;;;;;27.37;40.60;100675.13;5119657;27;45422;-71
2023/08/30 04:27:08;;;;;;;;;1.00;1.00;;;;;27.38;40.50;100690.09;5119590;27;45313;-71
2023/08/30 04:29:34;;;;;;;;;2.00;2.00;;;;;27.35;40.06;100686.00;5119472;27;45370;-71
2023/08/30 04:31:59;;;;;;;;;2.00;2.00;;;;;27.34;40.27;100686.25;5119329;27;45522;-71
2023/08/30 04:34:24;;;;;;;;;1.00;1.00;;;;;27.39;40.20;100692.56;5119484;27;45397;-72
2023/08/30 04:36:50;;;;;;;;;3.33;1.00;;;;;27.27;40.82;100675.63;5119106;27;45333;-71
2023/08/30 04:39:15;;;;;;;;;1.00;1.00;;;;;27.29;40.88;100671.69;5119431;27;45336;-71
2023/08/30 04:41:41;;;;;;;;;1.33;1.00;;;;;27.29;40.30;100662.88;5119083;27;46087;-71
2023/08/30 04:44:06;;;;;;;;;1.67;1.67;;;;;27.39;40.39;100678.38;5119309;27;45449;-71
2023/08/30 04:46:31;;;;;;;;;1.33;1.33;;;;;27.33;40.71;100677.41;5119027;27;45372;-71
2023/08/30 04:48:56;;;;;;;;;2.67;1.00;;;;;27.32;40.20;100678.47;5119119;27;45422;-71
2023/08/30 04:51:22;;;;;;;;;1.00;1.00;;;;;27.36;40.61;100689.50;5118612;27;45380;-71
2023/08/30 04:53:47;;;;;;;;;2.67;2.00;;;;;27.35;41.02;100678.00;5119094;27;45325;-72
2023/08/30 04:56:14;;;;;;;;;2.00;0.67;;;;;27.39;40.60;100683.72;5100471;27;45466;-71
2023/08/30 04:58:39;;;;;;;;;1.00;1.00;;;;;27.35;40.70;100686.00;5118913;27;45500;-71
2023/08/30 05:01:04;;;;;;;;;1.00;1.00;;;;;27.41;40.31;100695.00;5118804;27;45292;-71
2023/08/30 05:03:30;;;;;;;;;1.33;1.33;;;;;27.36;40.37;100694.84;5119030;27;45235;-71
2023/08/30 05:05:55;;;;;;;;;1.00;1.00;;;;;27.37;40.12;100693.81;5117931;27;45324;-71
2023/08/30 05:08:20;;;;;;;;;1.00;1.00;;;;;27.41;40.87;100697.66;5118250;27;45336;-71
2023/08/30 05:10:46;;;;;;;;;1.67;1.67;;;;;27.33;40.84;100687.25;5118803;27;46569;-71
2023/08/30 05:13:12;;;;;;;;;1.00;1.00;;;;;27.35;40.27;100688.69;5100254;27;45343;-72
2023/08/30 05:15:37;;;;;;;;;3.00;3.00;;;;;27.37;40.40;100691.16;5118933;27;45389;-71
2023/08/30 05:18:03;;;;;;;;;1.67;1.00;;;;;27.35;40.51;100696.69;5118836;27;45329;-73
2023/08/30 05:20:29;;;;;;;;;1.00;1.00;;;;;27.39;40.71;100703.25;5115064;27;45645;-75
2023/08/30 05:22:56;;;;;;;;;2.00;1.00;;;;;27.34;40.42;100697.75;5118153;27;45429;-80
2023/08/30 05:25:21;;;;;;;;;1.00;1.00;;;;;27.29;40.76;100690.41;5118215;27;45391;-75
2023/08/30 05:27:47;;;;;;;;;2.00;2.00;;;;;27.35;40.36;100694.00;5099659;27;45621;-75
2023/08/30 05:30:13;;;;;;;;;1.00;1.00;;;;;27.31;40.56;100700.84;5111532;27;45578;-75
2023/08/30 05:32:38;;;;;;;;;2.00;2.00;;;;;27.33;40.56;100709.44;5110994;27;45518;-77
2023/08/30 05:35:04;;;;;;;;;1.00;1.00;;;;;27.29;40.80;100695.75;5098152;27;45468;-77
2023/08/30 05:37:29;;;;;;;;;1.67;1.67;;;;;27.29;41.39;100693.06;5116207;27;45479;-77
2023/08/30 05:39:56;;;;;;;;;3.00;2.00;;;;;27.33;40.95;100697.94;5117769;27;46558;-77
2023/08/30 05:42:22;;;;;;;;;2.00;0.00;;;;;27.36;41.08;100710.88;5117295;27;45419;-74
2023/08/30 05:44:48;;;;;;;;;2.00;1.00;;;;;27.38;41.64;100708.78;5109632;27;45494;-76
2023/08/30 05:47:15;;;;;;;;;1.00;1.00;;;;;27.33;41.53;100698.78;5115893;27;45646;-75
2023/08/30 05:49:40;;;;;;;;;2.00;2.00;;;;;27.38;41.75;100712.28;5116580;27;46219;-75
2023/08/30 05:52:06;;;;;;;;;2.33;2.00;;;;;27.40;41.33;100718.22;5117304;27;45436;-76
2023/08/30 05:54:33;;;;;;;;;2.00;1.00;;;;;27.39;41.12;100719.28;5117019;27;45459;-75
2023/08/30 05:56:59;;;;;;;;;1.00;1.00;;;;;27.38;41.49;100711.47;5113169;27;45562;-75
2023/08/30 05:59:24;;;;;;;;;1.00;1.00;;;;;27.42;41.63;100715.34;5117507;27;46774;-75
2023/08/30 06:01:49;;;;;;;;;0.67;0.67;;;;;27.44;41.09;100720.47;5116853;27;45340;-76
2023/08/30 06:04:15;;;;;;;;;1.00;1.00;;;;;27.48;40.87;100730.47;5117105;27;45392;-75
2023/08/30 06:06:40;;;;;;;;;2.67;0.67;;;;;27.53;41.24;100732.50;5116528;27;45639;-76
2023/08/30 06:09:05;;;;;;;;;5.67;1.00;;;;;27.62;41.12;100738.38;5117308;27;46338;-76
2023/08/30 06:11:32;;;;;;;;;1.00;1.00;;;;;27.66;41.52;100730.75;5116457;27;45235;-75
2023/08/30 06:13:59;;;;;;;;;0.67;0.67;;;;;27.50;40.72;100708.91;5117679;27;45278;-75
2023/08/30 06:16:24;;;;;;;;;1.00;1.00;;;;;27.68;40.76;100712.63;5116811;27;45497;-76
2023/08/30 06:18:50;;;;;;;;;1.00;1.00;;;;;27.75;40.51;100724.03;5115350;27;47028;-76
2023/08/30 06:21:15;;;;;;;;;1.00;1.00;;;;;27.73;41.11;100724.28;5117418;27;45566;-76
2023/08/30 06:23:40;;;;;;;;;1.00;1.00;;;;;27.78;40.87;100722.78;5117432;27;45335;-76
2023/08/30 06:26:06;;;;;;;;;1.00;1.00;;;;;27.88;41.05;100725.78;5117232;27;45605;-75
2023/08/30 06:28:31;;;;;;;;;1.00;1.00;;;;;27.91;40.50;100708.47;5117034;27;45472;-76
2023/08/30 06:30:57;;;;;;;;;2.00;1.00;;;;;28.06;40.52;100714.25;5117198;27;45395;-76
2023/08/30 06:33:22;;;;;;;;;3.00;1.00;;;;;28.18;40.47;100710.84;5117013;27;45444;-76
2023/08/30 06:35:50;;;;;;;;;1.00;1.00;;;;;28.37;40.67;100716.94;5099153;27;45498;-76
2023/08/30 06:38:16;;;;;;;;;0.00;0.00;;;;;28.54;40.75;100718.19;5117614;27;46994;-76
2023/08/30 06:40:45;;;;;;;;;1.00;1.00;;;;;28.70;39.65;100709.50;5116221;27;45359;-76
2023/08/30 06:43:11;;;;;;;;;1.00;1.00;;;;;28.77;39.36;100711.28;5116597;27;45374;-75
2023/08/30 06:45:41;;;;;;;;;1.00;1.00;;;;;28.94;39.38;100716.75;5116812;27;45539;-76
2023/08/30 06:48:10;;;;;;;;;1.33;1.00;;;;;29.04;39.01;100716.22;5116366;27;45475;-76
2023/08/30 06:50:36;;;;;;;;;2.00;2.00;;;;;29.10;39.33;100715.31;5116522;27;45403;-77
2023/08/30 06:53:03;;;;;;;;;1.33;1.33;;;;;29.25;39.01;100730.13;5117724;27;45401;-78
2023/08/30 06:55:29;;;;;;;;;2.00;2.00;;;;;29.33;38.89;100732.41;5102185;27;45713;-77
2023/08/30 06:57:55;;;;;;;;;1.33;0.33;;;;;29.32;38.70;100721.94;5112803;27;46486;-77
2023/08/30 07:00:20;;;;;;;;;1.67;1.00;;;;;29.42;38.90;100734.75;5115976;27;45391;-77
2023/08/30 07:02:46;;;;;;;;;2.00;0.67;;;;;29.31;38.70;100718.44;5096602;27;45282;-76
2023/08/30 07:05:12;;;;;;;;;1.00;1.00;;;;;29.32;38.81;100724.63;5116729;27;45295;-76
2023/08/30 07:07:38;;;;;;;;;0.67;0.67;;;;;29.28;38.67;100719.72;5116541;27;45395;-76
2023/08/30 07:10:04;;;;;;;;;2.00;2.00;;;;;29.24;38.92;100726.63;5098328;27;45387;-76
2023/08/30 07:12:29;;;;;;;;;1.00;1.00;;;;;29.22;38.87;100726.03;5116365;27;45344;-77
2023/08/30 07:14:55;;;;;;;;;2.00;2.00;;;;;29.16;39.14;100724.28;5116399;27;45298;-76
2023/08/30 07:17:21;;;;;;;;;1.67;1.33;;;;;29.15;38.59;100736.84;5114771;27;45513;-76
2023/08/30 07:19:46;;;;;;;;;1.00;1.00;;;;;28.98;39.15;100720.63;5097808;27;45495;-77
2023/08/30 07:22:11;;;;;;;;;2.00;2.00;;;;;29.00;39.17;100731.09;5116616;27;45448;-76
2023/08/30 07:24:37;;;;;;;;;0.33;0.33;;;;;28.92;39.00;100734.94;5116262;27;45417;-77
2023/08/30 07:27:03;;;;;;;;;2.00;1.00;;;;;28.86;39.11;100733.97;5119539;27;46644;-77
2023/08/30 07:29:28;;;;;;;;;0.00;0.00;;;;;28.77;39.29;100728.16;5130448;27;45343;-77
2023/08/30 07:31:54;;;;;;;;;1.00;1.00;;;;;28.76;39.19;100733.72;5120327;27;45422;-77
2023/08/30 07:34:20;;;;;;;;;1.67;1.67;;;;;28.67;39.74;100743.97;5119743;27;45273;-76
2023/08/30 07:36:45;;;;;;;;;1.00;1.00;;;;;28.59;39.49;100735.22;5119673;27;45541;-77
2023/08/30 07:39:11;;;;;;;;;1.67;1.67;;;;;28.52;39.58;100732.63;5119289;27;45339;-77
2023/08/30 07:41:36;;;;;;;;;1.33;1.00;;;;;28.54;39.89;100751.13;5097989;27;45405;-76
2023/08/30 07:44:02;;;;;;;;;3.33;2.00;;;;;28.47;39.32;100740.50;5099042;27;45476;-76
2023/08/30 07:46:28;;;;;;;;;1.00;1.00;;;;;28.46;39.56;100751.44;5098331;27;46294;-76
2023/08/30 07:48:53;;;;;;;;;1.00;1.00;;;;;28.40;39.59;100747.78;5099264;27;45561;-77
2023/08/30 07:51:19;;;;;;;;;1.33;0.67;;;;;28.31;39.43;100735.78;5098921;27;45420;-77
2023/08/30 07:53:44;;;;;;;;;1.00;1.00;;;;;28.35;39.91;100747.66;5099146;27;45543;-77
2023/08/30 07:56:09;;;;;;;;;1.00;1.00;;;;;28.35;39.95;100751.16;5098890;27;46436;-76
2023/08/30 07:58:35;;;;;;;;;1.67;1.67;;;;;28.28;39.72;100751.25;5109323;27;45367;-77
2023/08/30 08:01:00;;;;;;;;;2.00;1.00;;;;;28.27;40.26;100746.09;5131249;27;45403;-77
2023/08/30 08:03:25;;;;;;;;;1.00;1.00;;;;;28.26;39.93;100747.94;5119167;27;45592;-77
2023/08/30 08:05:51;;;;;;;;;1.00;1.00;;;;;28.23;39.64;100751.09;5118978;27;45349;-77
2023/08/30 08:08:16;;;;;;;;;2.00;2.00;;;;;28.23;39.80;100760.97;5119378;27;45399;-77
2023/08/30 08:10:42;;;;;;;;;1.00;1.00;;;;;28.21;40.43;100755.84;5119662;27;45340;-77
2023/08/30 08:13:08;;;;;;;;;1.00;1.00;;;;;28.20;40.41;100767.59;5119647;27;45470;-77
2023/08/30 08:15:33;;;;;;;;;2.33;1.00;;;;;28.15;40.71;100759.44;5118929;27;45400;-77
2023/08/30 08:18:00;;;;;;;;;2.00;2.00;;;;;28.16;40.66;100772.56;5119203;27;45361;-77
2023/08/30 08:20:26;;;;;;;;;1.33;1.33;;;;;28.06;40.80;100762.41;5119136;27;45285;-77
2023/08/30 08:22:54;;;;;;;;;2.67;2.67;;;;;28.12;40.30;100773.25;5119381;27;45442;-77
2023/08/30 08:25:20;;;;;;;;;3.00;2.00;;;;;28.08;40.53;100775.53;5119163;27;45653;-77
2023/08/30 08:27:46;;;;;;;;;1.00;1.00;;;;;28.11;40.31;100785.78;5118574;27;45447;-77
2023/08/30 08:30:12;;;;;;;;;1.67;1.00;;;;;27.95;40.83;100766.63;5117928;27;45438;-77
2023/08/30 08:32:37;;;;;;;;;2.33;1.00;;;;;28.05;40.82;100786.69;5100889;27;45343;-77
2023/08/30 08:35:03;;;;;;;;;1.00;1.00;;;;;28.03;40.76;100789.56;5100484;27;46324;-77
2023/08/30 08:37:28;;;;;;;;;1.00;1.00;;;;;27.96;40.72;100778.97;5118431;27;45394;-77
2023/08/30 08:39:53;;;;;;;;;1.00;1.00;;;;;27.86;40.21;100770.66;5119271;27;45874;-77
2023/08/30 08:42:20;;;;;;;;;3.00;2.00;;;;;27.97;40.39;100790.47;5099985;27;45254;-76
2023/08/30 08:44:54;;;;;;;;;1.00;1.00;;;;;28.00;40.78;100802.59;5118334;27;45339;-77
2023/08/30 08:47:20;;;;;;;;;1.00;1.00;;;;;27.96;40.26;100796.84;5118301;27;45533;-77
2023/08/30 08:49:47;;;;;;;;;1.67;1.67;;;;;27.99;40.17;100800.94;5117409;27;45473;-77
2023/08/30 08:52:14;;;;;;;;;2.00;2.00;;;;;27.95;40.42;100801.38;5118723;27;45281;-77
2023/08/30 08:54:40;;;;;;;;;2.00;2.00;;;;;27.88;40.40;100797.16;5118095;27;45660;-77
2023/08/30 08:57:07;;;;;;;;;1.00;0.00;;;;;27.96;40.72;100813.72;5099979;27;45331;-77
2023/08/30 08:59:33;;;;;;;;;2.67;1.00;;;;;27.95;40.92;100814.75;5117727;27;45439;-77
2023/08/30 09:02:00;;;;;;;;;1.00;1.00;;;;;27.96;40.75;100819.06;5118379;27;45399;-77
2023/08/30 09:04:26;;;;;;;;;0.67;0.67;;;;;27.94;40.37;100818.47;5116982;27;45684;-77
2023/08/30 09:06:51;;;;;;;;;1.00;0.00;;;;;27.98;40.37;100812.66;5099915;27;45654;-77
2023/08/30 09:09:17;;;;;;;;;2.00;2.00;;;;;28.03;40.61;100818.16;5117721;27;45392;-77
2023/08/30 09:11:42;;;;;;;;;2.00;1.33;;;;;28.02;40.86;100813.88;5118562;27;45292;-77
2023/08/30 09:14:09;;;;;;;;;1.00;1.00;;;;;28.04;40.40;100819.81;5099374;27;45404;-78
2023/08/30 09:16:34;;;;;;;;;1.67;0.33;;;;;28.10;40.08;100815.44;5117607;27;45488;-77
2023/08/30 09:19:01;;;;;;;;;0.67;0.33;;;;;28.09;41.03;100821.81;5099807;27;45418;-77
2023/08/30 09:21:27;;;;;;;;;0.00;0.00;;;;;28.04;40.68;100814.47;5118319;27;45642;-77
2023/08/30 09:24:06;;;;;;;;;0.33;0.33;;;;;28.09;40.73;100829.84;5099731;27;47525;-77
2023/08/30 09:26:34;;;;;;;;;1.00;1.00;;;;;28.09;40.88;100825.31;5117612;27;45358;-77
2023/08/30 09:29:07;;;;;;;;;1.00;1.00;;;;;28.02;40.50;100820.03;5117647;27;45390;-77
2023/08/30 09:31:33;;;;;;;;;1.00;1.00;;;;;28.07;40.32;100838.09;5118308;27;45478;-77
2023/08/30 09:33:59;;;;;;;;;1.00;1.00;;;;;28.10;40.33;100836.84;5117610;27;46522;-77
2023/08/30 09:36:24;;;;;;;;;2.33;1.00;;;;;28.06;40.61;100831.09;5118016;27;45414;-77
2023/08/30 09:38:49;;;;;;;;;1.33;1.00;;;;;28.10;40.37;100832.31;5117963;27;45281;-77
2023/08/30 09:41:16;;;;;;;;;1.67;1.00;;;;;28.15;40.68;100832.47;5116644;27;45577;-77
2023/08/30 09:43:44;;;;;;;;;2.00;2.00;;;;;28.14;40.70;100830.00;5098917;27;47639;-77
2023/08/30 09:46:10;;;;;;;;;1.00;1.00;;;;;28.15;40.33;100829.78;5098926;27;45387;-77
2023/08/30 09:48:38;;;;;;;;;1.33;1.00;;;;;28.13;40.20;100823.81;5098978;27;45316;-77
2023/08/30 09:51:07;;;;;;;;;1.00;1.00;;;;;28.14;40.75;100811.28;5117026;27;45561;-77
2023/08/30 09:53:42;;;;;;;;;2.33;1.67;;;;;28.31;40.71;100818.69;5115843;27;46570;-77
2023/08/30 09:56:10;;;;;;;;;1.00;1.00;;;;;28.28;40.13;100812.78;5117229;27;45381;-77
2023/08/30 09:58:38;;;;;;;;;2.00;2.00;;;;;28.26;40.42;100797.97;5117516;27;45290;-77
2023/08/30 10:01:04;;;;;;;;;3.33;1.00;;;;;28.38;40.47;100814.91;5099360;27;45240;-77
2023/08/30 10:03:30;;;;;;;;;1.00;1.00;;;;;28.43;40.47;100808.06;5117175;27;46779;-77
2023/08/30 10:05:58;;;;;;;;;1.00;1.00;;;;;28.40;40.11;100798.63;5115960;27;45417;-77
2023/08/30 10:08:29;;;;;;;;;2.00;2.00;;;;;28.42;40.03;100795.75;5117279;27;45472;-78
2023/08/30 10:10:55;;;;;;;;;0.33;0.33;;;;;28.43;40.28;100797.34;5116353;27;45371;-78
2023/08/30 10:13:22;;;;;;;;;1.00;1.00;;;;;28.42;39.78;100801.88;5117257;27;47172;-77
2023/08/30 10:15:51;;;;;;;;;1.67;1.67;;;;;28.43;40.47;100814.22;5116590;27;45440;-78
2023/08/30 10:18:20;;;;;;;;;1.33;1.00;;;;;28.35;40.73;100810.00;5120689;27;45318;-77
2023/08/30 10:20:46;;;;;;;;;1.33;1.33;;;;;28.30;39.84;100799.16;5116871;27;45631;-78
2023/08/30 10:23:14;;;;;;;;;3.00;2.00;;;;;28.34;40.23;100813.72;5116452;27;46326;-78
2023/08/30 10:25:40;;;;;;;;;2.00;1.00;;;;;28.28;40.45;100815.44;5117167;27;45309;-78
2023/08/30 10:28:07;;;;;;;;;1.00;1.00;;;;;28.29;40.32;100817.06;5116004;27;45415;-77
2023/08/30 10:30:33;;;;;;;;;2.00;1.00;;;;;28.32;40.19;100823.81;5116773;27;45364;-78
2023/08/30 10:32:59;;;;;;;;;1.00;1.00;;;;;28.25;40.02;100823.91;5117151;27;45596;-77
2023/08/30 10:35:25;;;;;;;;;3.00;1.00;;;;;28.31;40.69;100824.88;5117277;27;45951;-78
2023/08/30 10:37:59;;;;;;;;;3.00;1.00;;;;;28.29;40.04;100829.63;5117677;27;45348;-77
2023/08/30 10:40:24;;;;;;;;;1.00;1.00;;;;;28.32;39.91;100839.88;5117104;27;45442;-77
2023/08/30 10:43:00;;;;;;;;;0.33;0.33;;;;;28.32;40.55;100831.84;5116836;27;46286;-78
2023/08/30 10:45:25;;;;;;;;;1.00;1.00;;;;;28.30;40.05;100817.88;5117213;27;45391;-77
2023/08/30 10:47:55;;;;;;;;;1.00;1.00;;;;;28.31;40.32;100816.84;5116215;27;45330;-78
2023/08/30 10:50:29;;;;;;;;;2.33;1.00;;;;;28.23;40.59;100801.09;5117113;27;45267;-78
2023/08/30 10:52:55;;;;;;;;;1.00;1.00;;;;;28.32;40.39;100823.00;5117117;27;45411;-78
2023/08/30 10:55:22;;;;;;;;;1.67;1.00;;;;;28.28;40.60;100817.28;5116140;27;45292;-78
2023/08/30 10:57:59;;;;;;;;;1.67;1.67;;;;;28.20;40.31;100810.38;5115792;27;45314;-77
2023/08/30 11:00:25;;;;;;;;;3.33;2.00;;;;;28.21;40.46;100817.34;5098467;27;45608;-77
2023/08/30 11:02:51;;;;;;;;;2.33;1.33;;;;;28.24;40.37;100826.78;5117025;27;46141;-77
2023/08/30 11:05:19;;;;;;;;;0.67;0.67;;;;;28.25;40.37;100831.09;5115196;27;45486;-77
2023/08/30 11:07:45;;;;;;;;;1.00;1.00;;;;;28.27;40.76;100829.03;5117031;27;45346;-77
2023/08/30 11:10:11;;;;;;;;;1.00;1.00;;;;;28.28;40.38;100823.47;5116101;27;45626;-78
2023/08/30 11:12:36;;;;;;;;;2.00;1.00;;;;;28.27;40.33;100827.16;5116475;27;45479;-77
2023/08/30 11:15:02;;;;;;;;;1.00;1.00;;;;;28.27;40.07;100843.22;5106387;27;45512;-81
2023/08/30 11:17:28;;;;;;;;;1.67;1.67;;;;;28.25;40.46;100823.91;5098521;27;45368;-79
2023/08/30 11:20:06;;;;;;;;;2.00;1.00;;;;;28.20;40.50;100804.22;5084004;27;45681;-80